Date,TemperatureHighF,TemperatureAvgF,TemperatureLowF,DewpointHighF,DewpointAvgF,DewpointLowF,HumidityHigh,HumidityAvg,HumidityLow,PressureMaxIn,PressureMinIn,WindSpeedMaxMPH,WindSpeedAvgMPH,GustSpeedMaxMPH,PrecipitationSumIn
2013-1-1,44.2,31.2,19.9,20.2,6.9,0.5,57,38,20,25.45,25.34,10,3,10,0.00
2013-1-2,51.1,34.9,23.5,10.3,5.5,0.2,44,30,19,25.37,25.28,9,3,9,0.00
2013-1-3,47.5,35.4,25.2,14.2,6.2,-3.3,54,30,19,25.45,25.31,14,4,15,0.00
2013-1-4,46.0,32.7,24.4,15.6,9.5,2.4,59,39,22,25.51,25.43,9,2,9,0.00
2013-1-5,54.5,33.7,21.6,16.2,6.1,-5.1,56,34,18,25.57,25.48,8,2,8,0.00
2013-1-6,51.8,35.4,22.3,10.7,4.1,-4.3,43,27,18,25.48,25.25,8,2,8,0.00
2013-1-7,55.6,39.5,23.5,14.0,8.2,1.9,48,29,17,25.25,25.10,10,3,11,0.00
2013-1-8,60.1,46.7,34.0,15.3,9.9,2.0,35,23,17,25.37,25.16,16,5,16,0.00
2013-1-9,61.5,45.3,31.3,18.9,6.3,-2.4,25,20,16,25.51,25.34,8,3,10,0.00
2013-1-10,62.6,46.2,26.2,19.6,8.1,-4.8,32,21,16,25.34,25.13,27,6,28,0.00
2013-1-11,52.0,35.2,22.8,18.7,2.6,-8.2,56,26,18,25.28,25.13,39,12,42,0.00
2013-1-12,37.6,27.0,17.6,1.9,-5.2,-12.1,27,24,21,25.31,25.16,23,6,24,0.00
2013-1-13,40.3,25.5,13.1,3.5,-6.4,-14.6,29,24,21,25.31,25.19,12,3,12,0.00
2013-1-14,36.9,26.5,17.8,1.4,-5.7,-12.1,25,24,22,25.34,25.22,19,5,21,0.00
2013-1-15,37.0,23.6,9.1,1.7,-7.6,-18.0,29,24,22,25.51,25.34,12,4,12,0.00
2013-1-16,51.1,33.3,18.3,10.3,-1.2,-11.6,25,22,19,25.57,25.48,9,4,9,0.00
2013-1-17,57.7,38.6,22.3,13.2,1.9,-8.2,25,21,17,25.57,25.48,9,3,10,0.00
2013-1-18,61.9,41.8,26.6,19.0,4.4,-6.0,26,21,16,25.54,25.43,8,4,8,0.00
2013-1-19,66.4,46.7,32.4,21.3,7.6,-1.3,23,20,16,25.54,25.43,8,3,8,0.00
2013-1-20,68.0,48.4,32.7,21.5,8.5,-1.0,23,20,17,25.48,25.37,9,3,9,0.00
2013-1-21,68.0,51.0,36.5,21.6,10.6,2.4,24,20,16,25.45,25.37,10,4,10,0.00
2013-1-22,70.5,51.9,37.6,23.6,11.2,1.2,24,19,17,25.51,25.43,10,3,10,0.00
2013-1-23,71.2,52.3,36.3,24.2,11.1,1.0,24,19,17,25.57,25.45,11,4,11,0.00
2013-1-24,64.4,54.2,46.0,20.8,14.5,6.4,29,21,17,25.54,25.48,9,2,10,0.00
2013-1-25,66.2,55.8,43.0,28.5,21.2,15.3,47,27,18,25.51,25.37,11,1,11,0.00
2013-1-26,64.9,55.9,49.5,50.0,30.7,20.8,84,40,20,25.37,25.25,26,7,26,0.12
2013-1-27,59.7,52.2,46.2,34.2,26.4,20.2,61,38,24,25.34,25.25,11,3,13,0.00
2013-1-28,52.9,44.8,34.0,28.7,22.2,13.3,59,42,21,25.28,25.16,29,10,30,0.28
2013-1-29,41.7,35.0,29.8,22.8,9.1,-0.4,71,37,21,25.40,25.22,28,9,28,0.00
2013-1-30,50.9,38.0,27.1,10.1,4.9,0.6,36,25,19,25.54,25.40,19,5,21,0.00
2013-1-31,55.4,39.8,27.5,12.5,6.6,1.8,33,25,18,25.48,25.43,8,3,9,0.00
2013-2-1,64.4,45.1,28.8,20.0,8.9,2.9,36,23,17,25.51,25.43,8,4,8,0.00
2013-2-2,67.8,49.2,32.5,21.5,10.3,1.0,30,21,17,25.54,25.45,8,3,8,0.00
2013-2-3,61.3,51.6,43.3,18.6,11.3,4.8,27,20,16,25.45,25.31,10,2,11,0.00
2013-2-4,65.1,52.5,39.0,21.4,16.1,10.1,39,24,18,25.37,25.25,15,3,15,0.00
2013-2-5,67.5,51.9,36.9,27.9,18.2,9.7,51,28,17,25.37,25.25,11,3,12,0.00
2013-2-6,64.0,50.0,37.0,29.4,17.0,9.5,50,29,17,25.34,25.22,18,4,18,0.00
2013-2-7,63.5,48.3,34.9,28.3,16.0,5.4,56,29,17,25.40,25.28,10,3,11,0.00
2013-2-8,64.6,51.6,36.1,20.1,11.5,2.8,29,20,16,25.31,25.10,28,7,28,0.00
2013-2-9,47.8,38.5,31.8,16.2,6.4,1.0,52,27,19,25.28,25.07,32,11,34,0.00
2013-2-10,53.2,37.9,23.5,12.2,5.4,-0.6,45,27,18,25.28,25.16,17,4,19,0.00
2013-2-11,47.1,34.7,23.2,24.7,7.7,-6.0,79,35,19,25.34,25.19,23,5,24,0.00
2013-2-12,46.4,34.2,20.1,15.0,7.3,-1.1,52,34,19,25.45,25.34,12,2,12,0.04
2013-2-13,56.7,38.4,22.6,12.4,4.8,-1.2,37,25,17,25.43,25.34,9,4,10,0.00
2013-2-14,61.2,43.7,25.0,15.6,7.1,-1.6,40,23,16,25.40,25.31,18,5,18,0.00
2013-2-15,63.1,46.3,36.1,19.6,7.3,1.0,24,20,16,25.54,25.40,14,5,14,0.00
2013-2-16,66.4,47.1,32.2,21.3,7.8,-1.4,23,20,16,25.57,25.37,13,4,14,0.00
2013-2-17,68.4,49.9,29.7,21.9,9.4,-3.6,23,19,16,25.37,25.16,31,9,33,0.00
2013-2-18,63.7,50.1,33.8,19.6,9.6,-1.0,22,19,16,25.37,25.25,26,4,26,0.00
2013-2-19,62.2,49.7,34.2,19.3,10.1,-0.7,27,20,16,25.28,25.04,26,8,27,0.00
2013-2-20,47.7,37.6,27.9,19.6,10.1,4.1,65,35,19,25.13,24.92,42,11,45,0.00
2013-2-21,43.2,34.9,22.3,16.9,11.5,7.3,57,39,23,25.28,25.13,20,3,22,0.00
2013-2-22,50.0,39.3,28.4,19.4,11.2,5.3,53,33,19,25.37,25.22,19,5,19,0.00
2013-2-23,62.2,43.1,24.4,19.5,10.6,5.7,50,29,17,25.37,25.13,18,4,20,0.00
2013-2-24,47.3,40.3,26.4,7.2,3.4,-6.0,25,21,19,25.31,25.07,38,13,38,0.00
2013-2-25,54.7,40.0,27.9,12.0,3.1,-5.1,23,21,18,25.40,25.28,17,7,17,0.00
2013-2-26,60.3,42.2,22.6,15.1,4.3,-7.3,27,21,17,25.34,25.19,22,5,25,0.00
2013-2-27,57.0,42.3,25.3,12.7,4.4,-6.4,24,20,17,25.45,25.34,11,5,11,0.00
2013-2-28,59.4,44.4,30.7,14.6,5.7,-2.7,23,20,17,25.54,25.43,12,5,12,0.00
2013-3-1,67.8,48.3,30.6,21.5,8.5,-2.8,23,20,16,25.57,25.48,14,4,15,0.00
2013-3-2,74.8,54.5,37.0,25.7,12.3,1.0,22,18,16,25.60,25.45,11,4,13,0.00
2013-3-3,75.2,58.7,40.3,25.8,15.3,3.5,21,18,15,25.45,25.28,26,6,28,0.00
2013-3-4,67.5,59.7,43.5,21.3,15.9,5.1,20,18,16,25.40,25.22,28,11,30,0.00
2013-3-5,70.9,56.6,37.2,23.9,15.7,2.3,30,20,16,25.45,25.34,20,5,24,0.00
2013-3-6,77.5,62.4,48.4,26.3,17.6,8.0,19,18,15,25.37,25.25,24,5,27,0.00
2013-3-7,72.3,58.8,42.3,24.4,15.3,4.5,21,18,16,25.31,25.22,17,4,19,0.00
2013-3-8,57.2,50.4,38.7,30.4,17.5,7.6,49,28,17,25.25,25.13,35,11,35,0.39
2013-3-9,46.8,40.6,35.4,22.7,13.4,7.4,53,33,24,25.34,25.19,38,10,38,0.04
2013-3-10,57.6,45.4,36.7,20.9,13.7,6.1,49,29,17,25.43,25.31,16,6,16,0.00
2013-3-11,68.4,50.1,33.6,21.9,13.9,4.4,41,25,16,25.45,25.31,13,4,13,0.00
2013-3-12,73.4,54.6,36.3,24.5,14.3,4.5,32,21,16,25.43,25.37,11,3,11,0.00
2013-3-13,77.5,59.7,40.6,26.3,15.4,3.8,21,18,15,25.51,25.40,11,4,12,0.00
2013-3-14,81.5,62.6,41.9,28.6,17.1,4.5,21,17,14,25.51,25.40,11,4,11,0.00
2013-3-15,85.3,66.7,46.9,29.8,19.8,6.8,19,17,13,25.43,25.28,20,6,26,0.00
2013-3-16,80.1,68.5,51.1,28.1,21.4,9.7,19,17,15,25.31,25.13,27,9,27,0.00
2013-3-17,74.8,64.5,51.8,25.7,18.8,9.7,19,17,16,25.31,25.16,31,9,32,0.00
2013-3-18,73.9,61.1,48.6,25.0,16.4,8.2,19,17,16,25.34,25.25,20,6,24,0.00
2013-3-19,71.8,61.0,48.7,24.4,16.5,8.3,19,17,16,25.40,25.28,24,6,24,0.00
2013-3-20,76.1,61.7,45.3,25.8,17.2,6.4,20,18,15,25.43,25.22,19,6,19,0.00
2013-3-21,73.2,64.8,58.1,24.4,19.8,13.5,19,18,16,25.22,25.10,27,11,27,0.00
2013-3-22,73.0,64.7,57.2,24.4,19.4,12.8,19,17,16,25.16,25.04,31,12,34,0.00
2013-3-23,68.4,58.6,44.8,21.6,14.8,6.2,20,18,16,25.31,25.16,31,10,34,0.00
2013-3-24,69.4,55.9,37.0,22.8,13.3,1.0,22,18,16,25.34,25.19,22,5,22,0.00
2013-3-25,70.7,56.4,38.3,23.8,13.7,1.8,21,18,16,25.34,25.25,13,4,14,0.00
2013-3-26,77.9,60.6,39.7,26.6,16.3,2.9,21,18,15,25.37,25.22,26,5,26,0.00
2013-3-27,77.9,64.9,46.6,26.6,19.2,6.5,19,17,15,25.34,25.25,39,6,39,0.00
2013-3-28,77.9,65.1,47.8,26.6,19.2,7.6,19,17,15,25.40,25.31,19,5,23,0.00
2013-3-29,78.6,65.9,48.2,27.1,19.5,7.9,19,17,15,25.45,25.34,18,5,18,0.00
2013-3-30,77.2,64.1,48.2,25.9,18.4,7.9,19,17,15,25.43,25.31,17,3,22,0.00
2013-3-31,77.4,64.4,50.0,26.1,18.4,9.4,19,17,15,25.40,25.28,16,6,22,0.00
2013-4-1,78.4,65.3,50.0,27.0,19.2,9.4,19,17,15,25.37,25.25,25,7,25,0.00
2013-4-2,71.8,59.3,45.3,24.4,15.6,6.4,20,18,16,25.31,25.19,26,7,26,0.00
2013-4-3,74.3,61.0,41.7,25.2,16.6,4.5,21,18,16,25.37,25.28,20,5,20,0.00
2013-4-4,81.5,65.3,44.1,28.6,19.2,5.6,20,17,14,25.43,25.31,19,5,19,0.00
2013-4-5,82.2,69.5,53.1,28.6,21.7,10.7,19,16,14,25.34,25.22,26,6,26,0.00
2013-4-6,78.4,67.5,54.5,27.0,20.7,11.3,19,17,15,25.34,25.22,22,7,22,0.00
2013-4-7,78.8,67.1,49.8,27.3,20.4,9.2,20,17,15,25.28,25.13,23,7,23,0.00
2013-4-8,76.6,65.2,54.3,25.8,19.6,11.3,20,17,15,25.13,24.83,32,12,35,0.00
2013-4-9,58.8,48.4,41.2,29.9,13.8,4.5,64,26,17,25.19,24.89,33,11,33,0.08
2013-4-10,61.7,52.2,41.5,19.0,10.6,4.5,21,19,16,25.31,25.19,31,9,31,0.00
2013-4-11,73.9,57.9,37.0,24.8,14.6,1.0,22,18,16,25.31,25.13,17,5,20,0.00
2013-4-12,74.8,60.8,44.6,25.5,16.5,6.0,20,18,16,25.19,25.10,12,4,13,0.00
2013-4-13,76.5,65.1,46.8,25.8,19.2,6.7,19,17,15,25.22,25.13,25,7,25,0.00
2013-4-14,77.9,66.6,54.7,26.4,20.2,11.3,19,17,15,25.19,25.07,25,7,26,0.00
2013-4-15,79.7,66.0,49.5,28.0,19.8,8.9,19,17,15,25.19,25.10,34,8,34,0.00
2013-4-16,78.3,66.8,53.1,26.7,20.7,10.7,19,17,15,25.19,25.10,35,10,35,0.00
2013-4-17,63.1,56.5,46.0,19.6,13.8,6.4,20,18,17,25.31,25.10,33,12,34,0.00
2013-4-18,63.5,51.2,37.0,19.6,10.2,1.0,22,19,16,25.43,25.28,18,6,18,0.00
2013-4-19,71.4,53.9,34.3,24.4,12.1,-0.6,22,19,16,25.48,25.28,15,4,15,0.00
2013-4-20,77.4,63.2,43.5,26.1,17.8,5.0,20,17,15,25.34,25.25,20,7,22,0.00
2013-4-21,82.4,67.2,45.1,28.6,20.2,6.5,20,17,14,25.40,25.31,19,5,21,0.00
2013-4-22,85.3,71.1,52.9,29.8,22.3,10.6,19,16,13,25.37,25.19,24,6,24,0.00
2013-4-23,82.2,71.2,57.4,28.6,23.0,12.9,19,16,14,25.28,25.19,29,9,30,0.00
2013-4-24,84.6,69.6,49.1,29.8,21.4,8.6,19,16,13,25.34,25.22,17,4,22,0.00
2013-4-25,80.6,69.9,54.5,28.6,22.4,11.3,19,17,14,25.37,25.22,29,10,29,0.00
2013-4-26,80.2,64.7,43.5,28.4,19.0,5.1,20,17,15,25.45,25.37,18,5,18,0.00
2013-4-27,83.3,69.1,47.7,29.2,21.5,7.4,19,16,14,25.43,25.28,17,4,19,0.00
2013-4-28,86.4,73.0,53.2,29.8,23.4,10.9,19,16,13,25.31,25.19,15,5,17,0.00
2013-4-29,88.5,74.7,54.9,31.5,24.4,11.3,19,15,13,25.25,25.13,28,5,28,0.00
2013-4-30,88.0,76.4,56.7,31.0,25.5,12.4,19,15,13,25.22,25.13,26,8,26,0.00
2013-5-1,84.4,71.1,51.3,29.8,22.7,9.7,19,16,13,25.37,25.19,26,6,27,0.00
2013-5-2,74.7,67.3,54.5,25.5,20.7,11.9,19,17,16,25.48,25.37,17,4,17,0.00
2013-5-3,74.7,74.7,74.7,25.5,25.5,25.5,16,16,16,25.48,25.25,13,3,13,0.00
2013-5-4,74.7,74.7,74.7,25.5,25.5,25.5,16,16,16,25.25,25.13,21,5,25,0.00
2013-5-5,74.7,74.7,74.7,25.5,25.5,25.5,16,16,16,25.31,25.19,19,7,26,0.00
2013-5-6,74.7,74.7,74.7,25.5,25.5,25.5,16,16,16,25.34,25.25,25,7,26,0.08
2013-5-7,74.7,74.7,74.7,25.5,25.5,25.5,16,16,16,25.34,25.22,25,7,25,0.00
2013-5-8,74.7,74.7,74.7,25.5,25.5,25.5,16,16,16,25.37,25.28,25,6,26,0.00
2013-5-9,74.7,74.7,74.7,25.5,25.5,25.5,16,16,16,25.34,25.28,26,7,26,0.00
2013-5-14,88.5,80.5,72.5,31.5,27.4,23.8,16,14,13,25.37,25.28,26,6,30,0.00
2013-5-15,88.0,79.8,68.2,31.0,27.1,21.7,17,15,13,25.40,25.28,23,10,25,0.00
2013-5-16,90.3,82.4,71.2,32.2,28.1,23.1,17,14,12,25.34,25.22,22,7,26,0.00
2013-5-17,89.4,75.1,54.1,32.0,24.6,11.3,19,15,13,25.31,25.22,28,7,28,0.00
2013-5-18,84.7,72.5,55.8,29.8,23.5,11.6,19,16,13,25.31,25.22,27,7,27,0.00
2013-5-19,84.7,70.7,52.5,29.8,22.8,10.9,21,17,13,25.31,25.19,25,7,25,0.00
2013-5-20,84.2,72.1,56.1,29.8,23.2,11.9,19,16,14,25.31,25.19,26,8,26,0.00
2013-5-21,87.6,73.2,51.3,30.8,23.5,9.7,19,16,13,25.31,25.19,18,5,18,0.00
2013-5-22,91.6,77.3,54.3,32.0,25.6,11.3,19,15,12,25.25,25.13,26,6,26,0.00
2013-5-23,92.7,77.7,54.7,32.4,25.7,11.3,19,15,12,25.28,25.19,23,8,23,0.00
2013-5-24,91.6,74.8,55.8,31.9,24.6,11.6,19,15,12,25.37,25.25,23,5,23,0.00
2013-5-25,90.7,76.6,54.1,31.9,24.9,11.3,19,15,12,25.37,25.28,30,5,35,0.00
2013-5-26,90.9,79.2,53.1,32.2,26.7,10.7,19,15,12,25.37,25.28,26,7,26,0.00
2013-5-27,91.8,75.1,53.6,32.2,24.6,11.1,19,15,12,25.31,25.16,19,5,19,0.00
2013-5-28,89.2,74.0,53.8,32.0,24.2,11.3,18,16,13,25.22,25.07,26,6,26,0.00
2013-5-29,85.8,73.7,56.8,29.8,24.1,12.4,19,16,13,25.19,25.10,19,6,25,0.00
2013-5-30,89.6,77.5,63.0,32.2,26.8,19.9,24,16,12,25.28,25.19,20,6,20,0.00
2013-5-31,92.5,79.4,62.4,32.5,28.0,21.9,24,16,12,25.31,25.22,25,6,25,0.00
2013-6-1,95.7,79.9,60.4,32.9,26.8,18.0,19,15,11,25.31,25.19,14,3,14,0.00
2013-6-2,99.3,85.1,64.6,34.9,29.2,20.1,18,13,10,25.28,25.16,20,6,25,0.00
2013-6-3,96.3,83.0,66.6,33.3,28.2,20.4,17,14,11,25.31,25.19,22,6,26,0.00
2013-6-4,95.9,82.5,63.0,33.0,28.1,18.8,18,14,11,25.31,25.22,22,7,23,0.00
2013-6-5,94.1,81.2,67.6,33.0,27.5,21.3,17,14,11,25.34,25.22,22,6,28,0.00
2013-6-6,97.0,82.8,62.4,33.8,28.1,18.5,19,14,11,25.28,25.19,14,4,14,0.00
2013-6-7,97.5,84.8,68.0,34.2,29.2,21.6,17,14,11,25.28,25.13,19,4,19,0.00
2013-6-8,98.4,90.7,72.7,34.9,31.4,23.9,16,12,11,25.28,25.19,27,9,29,0.00
2013-6-9,98.6,85.8,70.9,34.9,29.6,23.1,17,13,10,25.34,25.25,22,9,24,0.00
2013-6-10,99.9,86.3,69.8,34.9,29.4,23.1,17,13,10,25.37,25.25,23,6,25,0.00
2013-6-11,102.0,88.3,65.8,35.1,30.2,20.1,18,13,10,25.34,25.25,23,7,23,0.00
2013-6-12,102.4,88.6,68.9,35.3,30.3,22.3,17,13,9,25.37,25.25,25,7,25,0.00
2013-6-13,98.4,86.9,75.4,34.9,30.0,24.4,15,13,11,25.37,25.22,24,9,27,0.00
2013-6-14,96.6,83.5,71.2,33.6,28.7,23.1,17,14,11,25.34,25.22,19,5,22,0.00
2013-6-15,93.4,77.1,66.6,45.0,29.1,20.9,38,18,11,25.37,25.28,26,3,26,0.04
2013-6-16,95.7,80.2,61.5,34.3,29.9,25.3,35,17,11,25.40,25.28,17,4,17,0.00
2013-6-17,97.0,84.3,64.4,33.8,28.8,19.9,18,14,11,25.37,25.25,24,6,24,0.00
2013-6-18,99.0,84.4,60.4,34.9,28.7,14.4,19,14,10,25.34,25.22,25,6,25,0.00
2013-6-19,100.4,85.1,64.6,34.9,28.8,20.1,18,13,10,25.28,25.16,27,6,29,0.00
2013-6-20,98.8,83.8,62.2,34.9,28.5,18.5,19,14,10,25.28,25.22,27,6,29,0.00
2013-6-21,99.0,84.3,65.5,34.9,28.8,20.1,18,14,10,25.34,25.25,31,6,31,0.00
2013-6-22,97.0,83.6,62.8,33.8,28.5,18.5,18,14,11,25.34,25.22,30,6,30,0.00
2013-6-23,96.6,83.6,67.8,33.6,28.5,21.5,17,14,11,25.31,25.16,26,6,26,0.00
2013-6-24,95.0,82.5,67.1,32.8,28.0,20.7,17,14,11,25.31,25.22,25,6,27,0.00
2013-6-25,95.7,81.6,60.8,33.0,27.5,14.4,19,14,11,25.37,25.28,24,6,26,0.00
2013-6-26,96.6,84.2,65.7,33.6,28.7,20.1,18,14,11,25.45,25.34,27,8,27,0.00
2013-6-27,101.3,87.9,74.5,34.9,30.1,24.4,16,13,10,25.45,25.34,21,9,21,0.00
2013-6-28,100.2,88.1,77.7,34.9,30.5,26.4,15,13,10,25.43,25.34,14,5,15,0.00
2013-6-29,100.9,90.4,72.3,34.9,30.9,23.6,16,12,10,25.40,25.25,14,3,15,0.00
2013-6-30,103.6,88.8,76.8,41.1,30.5,25.7,15,13,9,25.34,25.19,32,6,33,0.00
2013-7-1,97.0,84.5,69.8,33.8,29.6,23.1,23,14,11,25.43,25.28,23,4,27,0.00
2013-7-2,92.3,81.2,63.5,44.5,33.1,24.5,50,20,12,25.51,25.31,28,4,28,0.16
2013-7-3,94.3,81.0,62.8,44.2,32.6,24.9,46,19,11,25.40,25.19,23,4,29,0.00
2013-7-4,95.4,81.4,66.2,47.2,33.1,24.4,50,20,11,25.31,25.19,22,4,22,0.00
2013-7-5,93.9,75.3,67.6,46.5,35.5,24.4,42,25,11,25.34,25.19,33,5,33,0.12
2013-7-6,94.5,80.1,64.0,45.5,34.9,26.1,49,23,11,25.28,25.19,18,3,23,0.00
2013-7-7,99.3,83.1,70.2,34.9,31.2,27.0,23,16,10,25.37,25.22,28,6,28,0.00
2013-7-8,96.6,82.1,72.0,37.1,31.7,27.0,28,17,11,25.40,25.31,16,4,16,0.00
2013-7-9,94.1,81.4,67.6,56.0,37.4,29.5,65,24,11,25.45,25.31,22,6,25,0.04
2013-7-10,90.9,79.9,66.0,59.3,40.3,30.3,67,27,12,25.43,25.31,26,6,28,0.00
2013-7-11,88.7,75.9,66.6,50.1,40.7,31.4,55,30,15,25.40,25.31,16,4,18,0.00
2013-7-12,90.3,77.6,63.9,53.2,36.2,27.0,67,26,12,25.40,25.28,22,4,22,0.08
2013-7-13,93.4,81.4,68.4,40.0,33.8,29.1,33,19,11,25.40,25.28,22,4,25,0.00
2013-7-14,95.4,84.2,69.6,48.5,33.3,27.0,43,17,11,25.40,25.25,22,6,22,0.00
2013-7-15,95.5,79.2,66.6,54.4,35.4,26.0,64,24,11,25.37,25.22,26,4,33,0.51
2013-7-16,76.5,68.4,65.1,62.0,52.8,37.8,82,60,26,25.45,25.37,15,2,15,0.08
2013-7-17,87.1,73.9,64.8,57.0,39.6,26.9,75,35,13,25.48,25.37,23,2,23,0.00
2013-7-18,79.5,72.1,62.6,45.8,35.7,30.4,52,28,20,25.45,25.34,16,4,16,0.00
2013-7-19,81.0,72.9,66.7,46.6,38.5,32.6,48,30,20,25.40,25.28,13,3,13,0.00
2013-7-20,85.8,73.6,64.2,49.7,40.3,31.8,56,32,16,25.34,25.25,15,3,17,0.00
2013-7-21,88.7,74.1,64.0,60.7,43.7,30.2,71,37,13,25.37,25.28,22,3,22,0.51
2013-7-22,88.3,77.1,67.5,47.6,37.6,28.1,46,26,13,25.40,25.31,22,7,22,0.00
2013-7-23,90.5,77.4,66.7,55.9,37.6,28.1,66,27,12,25.43,25.28,28,7,28,0.12
2013-7-24,85.8,73.4,65.7,59.9,46.8,32.6,74,43,16,25.40,25.31,13,2,15,0.04
2013-7-25,84.9,73.9,68.5,59.5,46.3,33.2,72,41,19,25.45,25.37,16,2,20,0.51
2013-7-26,91.0,76.7,67.3,51.0,39.8,29.2,49,29,12,25.51,25.43,27,4,28,0.00
2013-7-27,85.6,74.1,65.7,55.6,39.8,32.2,60,31,17,25.45,25.34,22,3,24,0.00
2013-7-28,92.8,80.1,65.3,47.0,34.2,26.1,46,22,12,25.34,25.25,19,5,19,0.00
2013-7-29,92.1,80.7,66.9,34.4,30.2,24.4,27,17,12,25.45,25.34,23,4,27,0.00
2013-7-30,96.3,83.8,68.7,33.3,28.6,22.0,19,14,11,25.51,25.43,15,5,17,0.00
2013-7-31,93.4,81.4,71.8,33.1,29.1,23.2,21,15,11,25.48,25.40,14,3,14,0.00
2013-8-1,76.6,71.0,66.2,52.2,40.5,31.1,56,34,21,25.48,25.37,18,2,18,0.31
2013-8-2,87.1,72.4,62.6,50.4,40.2,33.0,56,33,16,25.43,25.37,23,2,26,0.63
2013-8-3,92.8,78.6,62.2,53.2,35.6,27.0,61,25,12,25.43,25.34,21,3,24,0.00
2013-8-4,90.1,79.5,70.0,44.0,32.6,25.3,37,19,12,25.45,25.34,16,5,17,0.00
2013-8-5,84.6,72.2,63.0,47.8,38.1,24.4,56,31,15,25.48,25.34,25,5,25,0.43
2013-8-6,78.4,68.3,60.6,60.0,45.6,34.7,76,47,22,25.43,25.37,17,3,19,0.31
2013-8-7,84.7,72.7,58.8,58.3,36.5,23.1,77,32,13,25.43,25.34,17,5,17,0.00
2013-8-8,89.8,75.6,61.9,36.4,30.0,23.1,36,20,12,25.40,25.31,13,4,14,0.00
2013-8-9,92.8,78.4,60.1,32.7,27.3,19.3,25,16,12,25.37,25.31,15,4,15,0.00
2013-8-10,91.8,78.4,66.4,34.2,29.0,21.9,23,17,12,25.45,25.37,19,4,19,0.00
2013-8-11,88.9,75.6,65.5,43.1,36.1,27.0,42,25,13,25.45,25.31,22,4,24,0.00
2013-8-12,92.1,75.6,64.8,50.8,40.1,28.9,49,30,12,25.40,25.31,28,3,28,0.51
2013-8-13,91.6,77.7,65.3,43.1,36.2,26.9,37,23,12,25.43,25.31,13,3,13,0.04
2013-8-14,92.5,79.0,67.8,47.5,35.2,28.1,43,22,12,25.45,25.31,26,2,27,0.00
2013-8-15,91.8,78.1,65.3,49.1,36.2,26.4,55,25,12,25.45,25.34,14,3,14,0.00
2013-8-16,95.2,81.4,64.0,44.7,33.5,27.0,44,20,11,25.43,25.34,17,3,17,0.00
2013-8-17,97.5,83.6,67.5,37.0,31.4,24.4,29,16,11,25.45,25.31,16,4,16,0.00
2013-8-18,95.0,80.1,67.5,37.9,28.5,23.1,23,15,11,25.43,25.34,25,4,27,0.12
2013-8-19,95.2,80.9,65.3,35.0,30.2,25.3,30,17,11,25.43,25.31,19,3,19,0.00
2013-8-20,95.7,79.8,69.8,39.7,30.2,24.4,32,17,11,25.43,25.31,23,6,24,0.00
2013-8-21,88.7,78.2,66.0,41.3,32.1,25.4,38,20,13,25.40,25.31,17,4,17,0.00
2013-8-22,93.6,79.6,64.9,37.8,31.2,24.4,34,18,11,25.43,25.28,26,5,27,0.00
2013-8-23,91.4,77.6,63.0,51.8,32.3,25.1,59,22,12,25.37,25.22,17,4,17,0.16
2013-8-24,77.5,70.1,63.1,57.4,42.9,32.4,78,42,21,25.40,25.31,13,3,13,0.12
2013-8-25,87.1,72.3,63.9,59.2,46.8,30.5,72,45,16,25.43,25.34,17,2,17,0.00
2013-8-26,90.9,78.0,65.8,61.5,39.1,24.4,70,32,12,25.43,25.31,17,3,17,0.00
2013-8-27,90.5,77.8,63.5,38.3,31.0,23.5,35,19,12,25.37,25.25,15,4,15,0.00
2013-8-28,85.8,73.5,64.9,50.5,38.0,30.6,51,29,16,25.43,25.31,15,3,15,0.00
2013-8-29,77.9,68.8,65.3,60.9,54.2,37.9,84,62,26,25.51,25.43,17,1,17,0.67
2013-8-30,79.5,70.9,65.1,66.3,49.2,34.6,89,52,21,25.48,25.40,10,2,10,0.00
2013-8-31,89.2,76.0,62.1,52.8,39.5,28.1,68,32,13,25.43,25.31,15,4,15,0.00
2013-9-1,91.8,80.2,64.9,46.7,33.6,27.0,45,20,12,25.40,25.28,14,5,14,0.00
2013-9-2,94.3,79.8,67.8,41.9,33.6,24.6,36,20,11,25.43,25.28,14,3,14,0.00
2013-9-3,91.4,77.3,64.9,37.4,31.5,25.3,34,19,12,25.43,25.31,25,4,27,0.00
2013-9-4,90.9,76.9,63.1,38.8,31.5,23.9,39,21,12,25.45,25.34,20,2,20,0.00
2013-9-5,92.8,75.4,63.1,42.1,30.1,20.6,33,20,12,25.45,25.37,16,4,16,0.04
2013-9-6,89.6,76.1,64.2,39.3,31.3,24.4,36,21,12,25.45,25.31,13,4,14,0.00
2013-9-7,82.6,71.0,62.6,55.3,41.9,27.4,72,39,17,25.43,25.31,23,3,25,0.55
2013-9-8,79.7,67.1,63.5,59.6,52.0,34.1,83,62,21,25.37,25.25,22,2,23,0.47
2013-9-9,69.6,64.8,63.5,62.2,58.9,50.2,88,82,53,25.28,25.22,6,0,6,0.16
2013-9-10,79.9,68.3,62.2,67.1,47.3,31.1,90,55,20,25.34,25.25,17,3,17,0.00
2013-9-11,81.9,69.3,57.4,56.2,35.2,24.4,69,32,14,25.40,25.31,15,4,16,0.00
2013-9-12,84.0,71.9,61.7,54.3,41.0,33.0,65,35,19,25.34,25.22,15,3,17,0.00
2013-9-13,86.0,72.6,61.7,67.5,45.9,31.8,90,46,16,25.28,25.16,17,2,17,0.04
2013-9-14,86.5,73.5,60.8,60.0,40.8,28.1,83,37,13,25.25,25.16,10,2,10,0.00
2013-9-15,88.5,75.4,64.8,44.4,34.4,25.7,47,24,13,25.31,25.22,15,4,15,0.00
2013-9-16,88.9,74.5,63.1,45.7,36.3,28.1,48,27,13,25.37,25.28,15,3,17,0.00
2013-9-17,91.0,74.9,61.5,48.4,35.8,23.9,56,28,12,25.34,25.19,13,2,14,0.00
2013-9-18,91.2,77.8,63.0,43.3,32.5,24.4,47,21,12,25.28,25.13,11,3,11,0.00
2013-9-19,90.7,77.3,63.5,32.0,27.3,19.3,24,16,12,25.28,25.19,17,4,17,0.00
2013-9-20,88.0,72.7,62.2,43.0,34.5,25.9,43,26,13,25.37,25.25,17,3,20,0.00
2013-9-21,87.6,72.7,56.1,48.6,32.2,23.1,66,26,13,25.34,25.19,11,3,11,0.00
2013-9-22,86.9,74.7,61.5,37.9,28.9,18.5,36,19,13,25.19,25.10,23,6,29,0.00
2013-9-23,85.1,68.8,51.8,29.8,22.6,13.5,29,18,13,25.34,25.19,13,4,16,0.00
2013-9-24,89.4,71.9,52.3,32.2,22.5,10.1,20,16,13,25.40,25.25,25,5,25,0.00
2013-9-25,87.8,74.4,55.8,30.8,24.1,11.6,19,15,13,25.28,25.13,23,6,26,0.00
2013-9-26,86.0,75.1,64.0,31.0,25.4,19.7,23,16,13,25.22,25.13,23,7,26,0.00
2013-9-27,73.2,66.5,59.7,36.0,25.4,17.4,37,22,16,25.34,25.16,20,7,20,0.00
2013-9-28,79.7,65.1,49.6,28.0,20.1,11.2,24,18,15,25.43,25.31,12,3,12,0.00
2013-9-29,84.9,68.6,50.5,29.8,21.9,12.2,24,17,13,25.45,25.34,15,4,15,0.00
2013-9-30,85.6,69.2,50.5,29.8,22.0,12.1,21,17,13,25.37,25.28,18,4,18,0.00
2013-10-1,85.3,70.3,50.2,29.8,21.7,9.5,19,16,13,25.37,25.28,24,5,24,0.00
2013-10-2,84.7,70.4,52.3,29.8,22.5,11.6,21,16,13,25.37,25.25,19,3,19,0.00
2013-10-3,85.8,71.6,54.1,29.8,23.8,13.8,26,17,13,25.31,25.16,22,5,24,0.00
2013-10-4,79.2,68.3,55.4,30.5,23.9,16.1,36,19,15,25.34,25.22,22,6,23,0.00
2013-10-5,73.2,65.4,45.3,24.4,19.3,6.5,20,17,16,25.45,25.34,13,2,13,0.00
2013-10-6,79.2,68.0,47.5,27.6,20.9,7.3,19,17,15,25.57,25.40,12,2,13,0.00
2013-10-7,83.7,64.3,43.0,29.3,18.5,4.7,20,17,14,26.07,25.34,11,3,13,0.00
2013-10-8,82.6,69.3,52.2,28.6,21.4,10.0,19,16,14,26.28,25.37,19,3,19,0.00
2013-10-9,80.6,69.0,55.6,28.6,21.9,11.3,20,17,14,31.01,26.16,26,9,26,0.00
2013-10-10,68.5,60.4,43.3,26.6,21.1,16.7,40,23,17,31.01,31.01,31,9,32,0.00
2013-10-11,73.8,55.8,38.8,32.4,20.9,11.5,58,29,16,31.01,31.01,12,3,12,0.00
2013-10-12,81.3,63.6,42.4,28.6,20.6,10.9,30,20,14,31.01,31.01,17,4,17,0.00
2013-10-13,83.5,70.0,51.3,29.3,23.2,15.3,27,17,14,31.01,31.01,25,6,26,0.00
2013-10-14,76.1,66.2,53.6,33.2,25.1,11.1,38,22,15,31.01,31.01,26,6,26,0.00
2013-10-15,76.8,62.4,46.6,25.8,19.1,10.1,27,19,15,31.01,31.01,17,4,23,0.00
2013-10-16,73.4,59.5,46.8,24.4,15.4,6.7,19,18,16,31.01,20.05,16,5,16,0.00
2013-10-17,74.5,58.5,38.5,25.4,15.0,1.8,21,18,16,17.72,17.72,15,5,19,0.00
2013-10-18,76.1,58.9,40.6,25.8,15.2,3.8,21,18,15,17.72,17.72,13,3,14,0.00
2013-10-19,76.8,59.2,40.6,25.8,15.0,3.8,21,18,15,17.72,0.00,10,4,10,0.00
2013-10-20,76.3,62.4,40.8,25.8,17.3,3.9,21,17,15,25.34,0.00,17,5,17,0.00
2013-10-21,77.7,60.7,43.0,26.4,16.0,4.7,20,17,15,25.37,25.28,15,4,15,0.00
2013-10-22,77.9,59.6,41.7,26.6,15.4,4.5,21,18,15,25.45,25.34,14,3,14,0.00
2013-10-23,80.8,62.5,43.5,28.6,17.5,5.1,20,17,14,25.40,25.28,10,4,12,0.00
2013-10-24,83.5,66.5,46.4,29.3,19.9,6.4,20,17,14,25.40,25.28,18,4,19,0.00
2013-10-25,79.5,64.7,47.8,27.9,18.9,7.6,19,17,15,25.43,25.34,13,4,15,0.00
2013-10-26,77.7,60.8,42.4,26.4,16.1,4.5,21,17,15,25.48,25.40,11,3,11,0.00
2013-10-27,80.6,65.0,45.9,28.6,19.3,6.5,22,17,14,25.40,25.19,17,4,17,0.00
2013-10-28,74.1,65.1,50.5,25.1,19.9,9.7,19,18,16,25.28,25.19,22,7,22,0.00
2013-10-29,74.3,64.4,57.0,25.2,19.4,13.7,20,18,16,25.31,25.19,24,8,24,0.00
2013-10-30,66.6,56.0,40.6,22.5,17.3,5.4,37,22,17,25.34,25.22,26,7,26,0.00
2013-10-31,68.9,51.0,34.0,22.3,13.4,5.0,38,23,16,25.43,25.31,15,4,15,0.00
2013-11-1,71.2,52.4,34.2,24.2,11.2,-0.7,22,19,17,25.45,25.37,10,3,10,0.00
2013-11-2,75.6,56.8,38.1,25.8,13.8,1.6,21,18,15,25.45,25.28,25,4,27,0.00
2013-11-3,72.7,61.6,47.5,36.4,23.6,14.7,52,25,16,25.31,25.16,29,6,31,0.00
2013-11-4,72.3,59.5,44.1,28.1,20.5,14.0,40,23,16,25.22,25.10,17,4,17,0.00
2013-11-5,66.4,55.5,39.9,26.0,18.5,11.3,38,24,17,25.43,25.16,15,5,15,0.00
2013-11-6,66.7,49.3,33.4,21.3,10.9,-1.0,41,21,16,25.54,25.43,11,4,11,0.00
2013-11-7,71.1,52.6,35.2,24.1,11.3,0.2,22,19,16,25.57,25.43,13,4,13,0.00
2013-11-8,74.1,55.5,38.8,25.1,13.3,2.3,24,19,16,25.45,25.31,10,3,10,0.00
2013-11-9,74.8,57.3,40.1,25.7,15.3,5.4,28,19,16,25.45,25.37,10,3,10,0.00
2013-11-10,78.1,60.7,44.1,26.7,17.1,6.7,23,18,15,25.48,25.37,13,3,13,0.00
2013-11-12,52.2,51.3,50.2,22.1,19.5,18.4,31,28,27,25.57,25.57,8,2,9,0.00
2013-11-13,66.2,52.6,43.2,24.6,20.8,16.5,43,30,17,25.57,25.40,10,3,12,0.00
2013-11-14,74.1,56.1,38.3,25.1,19.9,10.7,55,27,16,25.40,25.25,19,4,19,0.00
2013-11-15,70.3,62.2,54.7,30.5,21.7,11.3,35,21,17,25.25,25.04,33,11,38,0.00
2013-11-16,70.0,60.9,50.5,24.5,21.1,15.5,33,22,17,25.25,25.07,32,9,32,0.00
2013-11-17,69.8,55.1,38.8,40.2,21.8,13.5,62,30,17,25.40,25.25,11,2,11,0.00
2013-11-18,73.0,58.0,45.3,26.5,19.4,11.3,39,23,16,25.43,25.31,10,3,10,0.00
2013-11-19,73.8,52.4,40.6,24.8,18.7,13.2,39,28,16,25.37,25.25,10,3,10,0.00
2013-11-20,72.3,61.4,45.5,24.4,18.8,11.6,27,19,16,25.25,25.16,22,8,23,0.00
2013-11-21,69.3,58.9,45.5,25.2,19.3,12.1,30,22,17,25.28,25.22,13,8,15,0.00
2013-11-22,64.2,55.5,45.0,51.0,32.1,21.9,88,44,21,25.31,25.19,27,8,27,0.12
2013-11-23,46.0,41.8,36.9,35.9,31.9,23.0,92,69,43,25.37,25.28,11,3,11,0.47
2013-11-24,42.4,36.4,33.8,35.4,26.3,17.1,97,69,42,25.43,25.34,14,6,15,0.04
2013-11-25,48.9,35.9,28.9,36.1,23.3,16.8,87,62,30,25.48,25.37,12,2,12,0.04
2013-11-26,56.7,43.3,30.7,31.4,16.3,7.6,68,37,18,25.57,25.48,13,2,13,0.00
2013-11-27,51.8,41.9,32.5,13.1,9.3,4.5,41,26,19,25.48,25.37,9,1,9,0.00
2013-11-28,61.3,42.0,27.0,18.8,14.2,9.3,53,34,19,25.43,25.34,8,2,8,0.00
2013-11-29,66.9,49.5,35.1,24.1,18.9,14.0,52,32,17,25.51,25.40,9,2,11,0.00
2013-11-30,66.9,52.8,41.5,26.5,21.2,15.6,49,31,17,25.48,25.40,9,1,9,0.00
2013-12-1,68.0,55.8,46.0,21.8,17.9,9.5,32,23,17,25.48,25.43,10,2,10,0.00
2013-12-2,71.4,52.6,36.7,24.4,13.9,4.5,33,22,16,25.45,25.25,15,3,15,0.00
2013-12-3,70.0,54.6,38.5,23.2,15.3,3.9,29,21,17,25.25,25.10,23,5,23,0.00
2013-12-4,63.7,55.8,48.0,27.1,18.4,10.9,36,23,16,25.19,25.07,31,11,33,0.00
2013-12-5,48.6,40.9,32.9,32.1,23.8,16.6,77,53,28,25.28,25.13,26,9,28,0.20
2013-12-6,47.3,34.8,24.1,19.5,12.9,8.0,57,42,22,25.40,25.28,17,2,17,0.04
2013-12-7,56.1,41.4,25.2,24.2,11.5,6.2,61,33,17,25.31,25.19,30,7,34,0.00
2013-12-8,51.1,43.6,37.0,19.0,11.7,4.1,41,27,20,25.34,25.22,29,9,32,0.00
2013-12-9,51.4,39.8,25.3,22.9,10.4,-4.5,51,31,19,25.51,25.28,17,6,17,0.00
2013-12-10,50.7,35.3,22.6,9.8,1.0,-6.0,35,23,19,25.51,25.37,13,4,13,0.00
2013-12-11,61.9,44.0,28.4,19.2,7.4,-2.2,32,22,17,25.51,25.40,9,2,9,0.00
2013-12-12,59.9,45.9,34.9,28.5,15.1,3.0,54,30,19,25.51,25.37,15,4,15,0.00
2013-12-13,56.8,45.3,34.7,28.7,15.9,9.6,72,33,20,25.43,25.34,17,6,17,0.00
2013-12-14,57.0,42.0,29.7,19.3,10.3,1.6,49,29,17,25.57,25.40,13,3,14,0.00
2013-12-15,60.4,42.9,32.2,15.3,7.3,1.0,32,23,17,25.57,25.48,10,3,10,0.00
2013-12-16,66.9,47.1,31.1,21.2,9.6,0.8,33,22,16,25.57,25.48,8,2,8,0.00
2013-12-17,70.0,49.6,34.5,23.2,10.6,3.0,30,21,17,25.57,25.45,8,3,8,0.00
2013-12-18,64.6,49.2,37.0,20.1,10.7,3.6,29,21,17,25.45,25.28,6,2,6,0.00
2013-12-19,64.0,56.2,42.6,19.7,13.4,4.5,21,18,16,25.19,25.04,26,10,26,0.00
2013-12-20,50.7,43.4,37.0,29.9,18.7,4.4,60,39,19,25.07,24.95,22,7,23,0.16
2013-12-21,46.0,39.9,36.7,26.3,19.9,11.8,60,45,28,25.25,25.04,31,15,32,0.04
2013-12-22,51.3,40.0,32.4,25.9,16.4,9.3,68,40,21,25.51,25.25,25,4,25,0.00
2013-12-23,55.8,40.4,27.0,25.4,11.4,3.2,66,34,17,25.60,25.51,9,3,11,0.00
2013-12-24,58.3,41.5,28.8,13.7,7.8,0.2,38,25,17,25.54,25.40,8,3,8,0.00
2013-12-25,58.3,44.8,34.0,16.1,8.8,1.6,31,23,17,25.54,25.43,11,5,11,0.00
2013-12-26,55.0,40.5,29.3,13.6,7.7,1.6,44,26,18,25.54,25.43,11,4,12,0.00
2013-12-27,58.3,41.3,28.2,13.7,6.1,-1.0,34,24,17,25.51,25.43,14,4,14,0.00
2013-12-28,57.0,41.2,24.8,12.5,6.5,-2.2,42,24,17,25.45,25.25,10,2,10,0.00
2013-12-29,58.3,45.2,34.3,13.5,7.8,1.4,31,22,17,25.43,25.25,12,3,12,0.00
2013-12-30,60.4,44.7,30.6,15.4,8.5,1.0,36,23,17,25.51,25.40,9,4,10,0.00
2013-12-31,60.3,46.7,27.9,15.3,8.6,1.0,35,22,17,25.51,25.40,8,3,9,0.00
2014-1-1,66.2,54.5,30.7,21.3,13.9,2.3,31,20,16,25.45,25.37,8,2,8,0.00
2014-1-2,63.1,50.7,37.4,19.6,10.6,1.0,24,20,16,25.51,25.40,11,3,11,0.00